createdAt,value
2022-08-03T00:14:12.313Z,26.31
2022-08-03T00:42:33.809Z,26
2022-08-03T01:10:40.482Z,23.78
2022-08-03T01:39:32.421Z,24.87
2022-08-03T02:08:02.673Z,25.44
2022-08-03T02:36:18.349Z,24.82
2022-08-03T03:04:58.892Z,25.26
2022-08-03T03:33:03.105Z,23.97
2022-08-03T04:01:59.601Z,23.44
2022-08-03T04:30:56.788Z,23.82
2022-08-03T04:59:45.209Z,24.25
2022-08-03T05:28:39.074Z,23.23
2022-08-03T05:56:49.678Z,23.29
2022-08-03T06:25:15.292Z,24.61
2022-08-03T06:53:40.226Z,25.36
2022-08-03T07:22:08.339Z,26.67
2022-08-03T07:51:24.221Z,27.96
2022-08-03T08:20:38.271Z,29.45
2022-08-03T08:49:09.122Z,31.22
2022-08-03T09:17:59.695Z,29.8
2022-08-03T09:46:35.488Z,30.37
2022-08-03T10:14:56.543Z,31.64
2022-08-03T10:43:25.910Z,30.65
2022-08-03T11:12:32.906Z,29.85
2022-08-03T11:41:04.984Z,29.77
2022-08-03T12:10:10.307Z,30.71
2022-08-03T12:39:14.560Z,30.72
2022-08-03T13:08:30.086Z,30.68
2022-08-03T13:37:29.935Z,30.59
2022-08-03T14:06:35.547Z,31.09
2022-08-03T14:35:03.264Z,32.08
2022-08-03T15:03:21.429Z,30.91
2022-08-03T15:31:48.664Z,31.26
2022-08-03T16:00:15.922Z,32.62
2022-08-03T16:29:22.566Z,31.31
2022-08-03T16:57:56.834Z,33.9
2022-08-03T17:26:12.632Z,33.92
2022-08-03T17:54:22.158Z,33.7
2022-08-03T18:22:34.959Z,33.19
2022-08-03T18:50:52.133Z,32.48
2022-08-03T19:19:08.543Z,31.5
2022-08-03T19:47:36.973Z,30.75
2022-08-03T20:16:20.633Z,30.11
2022-08-03T20:45:58.640Z,29.84
2022-08-03T21:13:44.677Z,29.87
2022-08-03T21:42:33.521Z,29.01
2022-08-03T22:11:21.627Z,27.48
2022-08-03T22:40:30.211Z,27.77
2022-08-03T23:09:09.484Z,27.08
2022-08-03T23:38:23.583Z,28.04
